Time;durP1;ratioP1;P1;durP2;ratioP2;P2;SDS_P1;SDS_P2;PMS_P1;PMS_P2;Temp;Humidity;BMP_temperature;BMP_pressure;BME280_temperature;BME280_humidity;BME280_pressure;Samples;Min_cycle;Max_cycle;Signal;HPM_P1;HPM_P2
2022/12/20 00:01:07;;;;;;;;;;;8.60;99.90;;;;;;5072466;28;19924;-75
2022/12/20 00:03:33;;;;;;;;;;;8.50;99.90;;;;;;5072107;28;20329;-76
2022/12/20 00:05:58;;;;;;;;;;;8.50;99.90;;;;;;5070441;28;20431;-76
2022/12/20 00:08:24;;;;;;;;;;;8.50;99.90;;;;;;5068722;28;19946;-76
2022/12/20 00:10:49;;;;;;;;;;;8.50;99.90;;;;;;5068976;28;19925;-76
2022/12/20 00:13:15;;;;;;;;;;;8.60;99.90;;;;;;5073033;28;19935;-76
2022/12/20 00:15:41;;;;;;;;;;;8.60;99.90;;;;;;5077734;28;20433;-76
2022/12/20 00:18:06;;;;;;;;;;;8.60;99.90;;;;;;5076223;28;19950;-77
2022/12/20 00:20:32;;;;;;;;;;;8.70;99.90;;;;;;5076039;28;19932;-76
2022/12/20 00:22:57;;;;;;;;;;;8.80;99.90;;;;;;5066372;28;20474;-76
2022/12/20 00:25:23;;;;;;;;;;;8.80;99.90;;;;;;5071039;28;19929;-76
2022/12/20 00:27:50;;;;;;;;;;;8.90;99.90;;;;;;5074104;28;19928;-76
2022/12/20 00:30:15;;;;;;;;;;;8.90;99.90;;;;;;5074870;28;20011;-76
2022/12/20 00:32:42;;;;;;;;;;;9.00;99.90;;;;;;5065261;28;19964;-76
2022/12/20 00:35:08;;;;;;;;;;;9.00;99.90;;;;;;5077262;28;19925;-76
2022/12/20 00:37:33;;;;;;;;;;;9.10;99.90;;;;;;5077599;28;19936;-76
2022/12/20 00:39:59;;;;;;;;;;;9.20;99.90;;;;;;5060051;28;19928;-76
2022/12/20 00:42:24;;;;;;;;;;;9.20;99.90;;;;;;5076876;28;19928;-75
2022/12/20 00:44:50;;;;;;;;;;;9.10;99.90;;;;;;5077620;28;20007;-76
2022/12/20 00:47:15;;;;;;;;;;;9.10;99.90;;;;;;5060259;28;19943;-76
2022/12/20 00:49:41;;;;;;;;;;;9.10;99.90;;;;;;5061459;28;19928;-75
2022/12/20 00:52:06;;;;;;;;;;;9.00;99.90;;;;;;5069888;28;19947;-76
2022/12/20 00:54:32;;;;;;;;;;;9.00;99.90;;;;;;5072649;28;19925;-76
2022/12/20 00:56:58;;;;;;;;;;;9.00;99.90;;;;;;5068955;28;19948;-76
2022/12/20 00:59:24;;;;;;;;;;;8.90;99.90;;;;;;5060261;28;19932;-76
2022/12/20 01:01:50;;;;;;;;;;;8.90;99.90;;;;;;5073338;28;19936;-76
2022/12/20 01:04:15;;;;;;;;;;;8.90;99.90;;;;;;5074100;28;19924;-76
2022/12/20 01:06:41;;;;;;;;;;;8.90;99.90;;;;;;5076000;28;19925;-76
2022/12/20 01:09:07;;;;;;;;;;;8.80;99.90;;;;;;5077186;28;20390;-76
2022/12/20 01:11:33;;;;;;;;;;;8.80;99.90;;;;;;5066912;28;19931;-76
2022/12/20 01:14:00;;;;;;;;;;;8.80;99.90;;;;;;5075181;28;20047;-75
2022/12/20 01:16:28;;;;;;;;;;;8.90;99.90;;;;;;5074251;28;19936;-76
2022/12/20 01:18:54;;;;;;;;;;;8.90;99.90;;;;;;5075965;28;19932;-76
2022/12/20 01:21:20;;;;;;;;;;;8.90;99.90;;;;;;5073160;28;20015;-76
2022/12/20 01:23:46;;;;;;;;;;;8.90;99.90;;;;;;5074600;28;19924;-75
2022/12/20 01:26:13;;;;;;;;;;;8.90;99.90;;;;;;5074414;28;19935;-76
2022/12/20 01:28:40;;;;;;;;;;;8.90;99.90;;;;;;5069300;28;20442;-75
2022/12/20 01:31:07;;;;;;;;;;;8.90;99.90;;;;;;5076650;28;20291;-75
2022/12/20 01:33:33;;;;;;;;;;;8.90;99.90;;;;;;5074839;28;19936;-76
2022/12/20 01:36:00;;;;;;;;;;;8.80;99.90;;;;;;5072965;28;20657;-76
2022/12/20 01:38:26;;;;;;;;;;;8.80;99.90;;;;;;5074446;28;20310;-76
2022/12/20 01:40:52;;;;;;;;;;;8.80;99.90;;;;;;5071903;28;20054;-77
2022/12/20 01:43:18;;;;;;;;;;;8.80;99.90;;;;;;5062038;28;19928;-76
2022/12/20 01:45:44;;;;;;;;;;;8.90;99.90;;;;;;5078014;28;19925;-76
2022/12/20 01:48:10;;;;;;;;;;;8.90;99.90;;;;;;5080184;28;20959;-76
2022/12/20 01:50:35;;;;;;;;;;;8.90;99.90;;;;;;5072753;28;19978;-76
2022/12/20 01:53:03;;;;;;;;;;;8.90;99.90;;;;;;5078267;28;19929;-75
2022/12/20 01:55:29;;;;;;;;;;;8.90;99.90;;;;;;5075927;28;19924;-76
2022/12/20 01:58:03;;;;;;;;;;;8.90;99.90;;;;;;5071437;28;19936;-77
2022/12/20 02:00:29;;;;;;;;;;;8.90;99.90;;;;;;5075141;28;19925;-76
2022/12/20 02:02:57;;;;;;;;;;;9.00;99.90;;;;;;5074913;28;19946;-76
2022/12/20 02:05:23;;;;;;;;;;;9.00;99.90;;;;;;5072066;28;19925;-76
2022/12/20 02:07:50;;;;;;;;;;;9.10;99.90;;;;;;5074124;28;19935;-76
2022/12/20 02:10:16;;;;;;;;;;;9.10;99.90;;;;;;5075757;28;19924;-75
2022/12/20 02:12:45;;;;;;;;;;;9.20;99.90;;;;;;5078277;28;19933;-76
2022/12/20 02:15:13;;;;;;;;;;;9.20;99.90;;;;;;5075699;28;19925;-76
2022/12/20 02:17:48;;;;;;;;;;;9.20;99.90;;;;;;5067023;28;19952;-76
2022/12/20 02:20:34;;;;;;;;;;;9.30;99.90;;;;;;5078260;28;19928;-76
2022/12/20 02:23:23;;;;;;;;;;;9.30;99.90;;;;;;5065188;28;19978;-76
2022/12/20 02:26:00;;;;;;;;;;;9.40;99.90;;;;;;5036772;28;19925;-75
2022/12/20 02:28:38;;;;;;;;;;;9.40;99.90;;;;;;5063498;28;19932;-76
2022/12/20 02:31:06;;;;;;;;;;;9.40;99.90;;;;;;5078370;28;20380;-76
2022/12/20 02:33:32;;;;;;;;;;;9.40;99.90;;;;;;5073279;28;19925;-76
2022/12/20 02:35:58;;;;;;;;;;;9.40;99.90;;;;;;5073191;28;19925;-76
2022/12/20 02:38:43;;;;;;;;;;;9.40;99.90;;;;;;5069452;28;19929;-76
2022/12/20 02:41:20;;;;;;;;;;;9.40;99.90;;;;;;5073242;28;19986;-75
2022/12/20 02:46:33;;;;;;;;;;;9.40;99.90;;;;;;5076138;28;19968;-75
2022/12/20 02:49:01;;;;;;;;;;;9.40;99.90;;;;;;5076929;28;19958;-75
2022/12/20 02:51:27;;;;;;;;;;;9.40;99.90;;;;;;5068485;28;19950;-75
2022/12/20 02:53:53;;;;;;;;;;;9.30;99.90;;;;;;5069713;28;20308;-75
2022/12/20 02:56:22;;;;;;;;;;;9.30;99.90;;;;;;5075251;28;19933;-75
2022/12/20 02:58:50;;;;;;;;;;;9.30;99.90;;;;;;5077291;28;19930;-76
2022/12/20 03:01:18;;;;;;;;;;;9.30;99.90;;;;;;5077858;28;19967;-76
2022/12/20 03:03:44;;;;;;;;;;;9.30;99.90;;;;;;5076682;28;19952;-75
2022/12/20 03:06:09;;;;;;;;;;;9.30;99.90;;;;;;5078046;28;19936;-75
2022/12/20 03:08:35;;;;;;;;;;;9.30;99.90;;;;;;5078862;28;19928;-75
2022/12/20 03:11:01;;;;;;;;;;;9.20;99.90;;;;;;5076782;28;19925;-76
2022/12/20 03:13:26;;;;;;;;;;;9.20;99.90;;;;;;5077347;28;19950;-75
2022/12/20 03:15:52;;;;;;;;;;;9.20;99.90;;;;;;5058995;28;19940;-76
2022/12/20 03:18:17;;;;;;;;;;;9.20;99.90;;;;;;5075081;28;19929;-75
2022/12/20 03:20:43;;;;;;;;;;;9.20;99.90;;;;;;5070394;28;20390;-75
2022/12/20 03:23:08;;;;;;;;;;;9.20;99.90;;;;;;5072377;28;19966;-75
2022/12/20 03:25:34;;;;;;;;;;;9.10;99.90;;;;;;5075209;28;19929;-75
2022/12/20 03:28:00;;;;;;;;;;;9.10;99.90;;;;;;5076578;28;19924;-75
2022/12/20 03:30:25;;;;;;;;;;;9.10;99.90;;;;;;5077234;28;19932;-75
2022/12/20 03:32:51;;;;;;;;;;;9.10;99.90;;;;;;5071103;28;19974;-75
2022/12/20 03:35:16;;;;;;;;;;;9.10;99.90;;;;;;5076010;28;19928;-75
2022/12/20 03:37:42;;;;;;;;;;;9.10;99.90;;;;;;5070220;28;20267;-76
2022/12/20 03:40:08;;;;;;;;;;;9.10;99.90;;;;;;5058872;28;20449;-76
2022/12/20 03:42:33;;;;;;;;;;;9.10;99.90;;;;;;5076476;28;19932;-76
2022/12/20 03:44:59;;;;;;;;;;;9.10;99.90;;;;;;5072754;28;20708;-75
2022/12/20 03:47:25;;;;;;;;;;;9.10;99.90;;;;;;5076884;28;19924;-75
2022/12/20 03:49:51;;;;;;;;;;;9.10;99.90;;;;;;5075089;28;19933;-75
2022/12/20 03:52:16;;;;;;;;;;;9.10;99.90;;;;;;5070287;28;19963;-76
2022/12/20 03:54:42;;;;;;;;;;;9.10;99.90;;;;;;5070955;28;19925;-75
2022/12/20 03:57:08;;;;;;;;;;;9.10;99.90;;;;;;5064659;28;19941;-75
2022/12/20 03:59:34;;;;;;;;;;;9.10;99.90;;;;;;5062744;28;19935;-76
2022/12/20 04:02:00;;;;;;;;;;;9.10;99.90;;;;;;5072035;28;19932;-76
2022/12/20 04:04:26;;;;;;;;;;;9.20;99.90;;;;;;5055608;28;19951;-75
2022/12/20 04:06:51;;;;;;;;;;;9.20;99.90;;;;;;5077537;28;20395;-76
2022/12/20 04:09:17;;;;;;;;;;;9.20;99.90;;;;;;5056179;28;19925;-75
2022/12/20 04:11:42;;;;;;;;;;;9.10;99.90;;;;;;5072943;28;19924;-76
2022/12/20 04:14:08;;;;;;;;;;;9.20;99.90;;;;;;5073830;28;19983;-75
2022/12/20 04:16:34;;;;;;;;;;;9.20;99.90;;;;;;5060760;28;19968;-76
2022/12/20 04:18:59;;;;;;;;;;;9.20;99.90;;;;;;5077057;28;19932;-76
2022/12/20 04:21:29;;;;;;;;;;;9.20;99.90;;;;;;5070873;28;19932;-76
2022/12/20 04:23:55;;;;;;;;;;;9.20;99.90;;;;;;5078037;28;20130;-76
2022/12/20 04:26:21;;;;;;;;;;;9.20;99.90;;;;;;5051806;28;20000;-75
2022/12/20 04:28:47;;;;;;;;;;;9.20;99.90;;;;;;5077578;28;19947;-76
2022/12/20 04:31:12;;;;;;;;;;;9.20;99.90;;;;;;5075043;28;19979;-75
2022/12/20 04:33:38;;;;;;;;;;;9.20;99.90;;;;;;5092641;28;19928;-75
2022/12/20 04:36:04;;;;;;;;;;;9.20;99.90;;;;;;5078084;28;19931;-75
2022/12/20 04:38:29;;;;;;;;;;;9.20;99.90;;;;;;5065432;28;20305;-75
2022/12/20 04:40:55;;;;;;;;;;;9.20;99.90;;;;;;5075870;28;19925;-76
2022/12/20 04:43:21;;;;;;;;;;;9.20;99.90;;;;;;5078732;28;19990;-75
2022/12/20 04:45:48;;;;;;;;;;;9.20;99.90;;;;;;5072306;28;20323;-75
2022/12/20 04:48:13;;;;;;;;;;;9.20;99.90;;;;;;5077811;28;20003;-75
2022/12/20 04:50:39;;;;;;;;;;;9.30;99.90;;;;;;5076166;28;19975;-75
2022/12/20 04:55:49;;;;;;;;;;;9.30;99.90;;;;;;5064074;28;19929;-75
2022/12/20 04:58:15;;;;;;;;;;;9.40;99.90;;;;;;5074241;28;19970;-75
2022/12/20 05:00:41;;;;;;;;;;;9.40;99.90;;;;;;5072216;28;19928;-75
2022/12/20 05:03:06;;;;;;;;;;;9.50;99.90;;;;;;5060261;28;20086;-75
2022/12/20 05:05:32;;;;;;;;;;;9.50;99.90;;;;;;5072612;28;19925;-75
2022/12/20 05:07:57;;;;;;;;;;;9.50;99.90;;;;;;5074824;28;20158;-75
2022/12/20 05:10:23;;;;;;;;;;;9.60;99.90;;;;;;5073146;28;19949;-75
2022/12/20 05:12:48;;;;;;;;;;;9.60;99.90;;;;;;5076929;28;19925;-75
2022/12/20 05:15:14;;;;;;;;;;;9.60;99.90;;;;;;5073330;28;20820;-75
2022/12/20 05:17:39;;;;;;;;;;;9.60;99.90;;;;;;5078499;28;19933;-75
2022/12/20 05:20:06;;;;;;;;;;;9.60;99.90;;;;;;5079968;28;19928;-76
2022/12/20 05:28:00;;;;;;;;;;;9.70;99.90;;;;;;5077985;28;20050;-75
2022/12/20 05:30:26;;;;;;;;;;;9.70;99.90;;;;;;5073405;28;20326;-80
2022/12/20 05:32:51;;;;;;;;;;;9.70;99.90;;;;;;5073667;28;19932;-80
2022/12/20 05:35:17;;;;;;;;;;;9.70;99.90;;;;;;5078305;28;19933;-79
2022/12/20 05:37:43;;;;;;;;;;;9.80;99.90;;;;;;5080303;28;19981;-80
2022/12/20 05:40:09;;;;;;;;;;;9.70;99.90;;;;;;5078850;28;19924;-80
2022/12/20 05:42:34;;;;;;;;;;;9.80;99.90;;;;;;5077027;28;19924;-79
2022/12/20 05:45:00;;;;;;;;;;;9.80;99.90;;;;;;5074701;28;19925;-80
2022/12/20 05:47:26;;;;;;;;;;;9.80;99.90;;;;;;5079710;28;19972;-80
2022/12/20 05:49:51;;;;;;;;;;;9.80;99.90;;;;;;5077272;28;19967;-79
2022/12/20 05:52:17;;;;;;;;;;;9.90;99.90;;;;;;5070492;28;19979;-79
2022/12/20 05:54:42;;;;;;;;;;;9.90;99.90;;;;;;5078434;28;20283;-79
2022/12/20 05:57:08;;;;;;;;;;;9.90;99.90;;;;;;5073196;28;19925;-80
2022/12/20 05:59:34;;;;;;;;;;;9.90;99.90;;;;;;5074967;28;19964;-79
2022/12/20 06:01:59;;;;;;;;;;;9.90;99.90;;;;;;5072456;28;19940;-79
2022/12/20 06:04:25;;;;;;;;;;;9.90;99.90;;;;;;5074184;28;19925;-80
2022/12/20 06:06:51;;;;;;;;;;;10.00;99.90;;;;;;5076967;28;19935;-79
2022/12/20 06:09:17;;;;;;;;;;;10.00;99.90;;;;;;5075762;28;19929;-79
2022/12/20 06:11:42;;;;;;;;;;;10.00;99.90;;;;;;5071006;28;19982;-78
2022/12/20 06:14:08;;;;;;;;;;;10.10;99.90;;;;;;5079887;28;19931;-79
2022/12/20 06:16:35;;;;;;;;;;;10.10;99.90;;;;;;5078536;28;19936;-79
2022/12/20 06:19:01;;;;;;;;;;;10.10;99.90;;;;;;5080365;28;19928;-80
2022/12/20 06:21:27;;;;;;;;;;;10.20;99.90;;;;;;5075802;28;20276;-80
2022/12/20 06:23:53;;;;;;;;;;;10.20;99.90;;;;;;5069752;28;19932;-80
2022/12/20 06:26:18;;;;;;;;;;;10.30;99.90;;;;;;5073181;28;19932;-80
2022/12/20 06:28:44;;;;;;;;;;;10.30;99.90;;;;;;5074133;28;19930;-80
2022/12/20 06:31:10;;;;;;;;;;;10.30;99.90;;;;;;5073162;28;20707;-80
2022/12/20 06:33:36;;;;;;;;;;;10.20;99.90;;;;;;5071802;28;19925;-80
2022/12/20 06:36:02;;;;;;;;;;;10.20;99.90;;;;;;5078951;28;19925;-79
2022/12/20 06:38:28;;;;;;;;;;;10.10;99.90;;;;;;5065532;28;19925;-75
2022/12/20 06:40:53;;;;;;;;;;;10.10;99.90;;;;;;5077070;28;19924;-76
2022/12/20 06:43:19;;;;;;;;;;;10.10;99.90;;;;;;5077956;28;20481;-76
2022/12/20 06:45:44;;;;;;;;;;;10.10;99.90;;;;;;5078605;28;19929;-75
2022/12/20 06:48:10;;;;;;;;;;;10.00;99.90;;;;;;5078206;28;19924;-75
2022/12/20 06:50:36;;;;;;;;;;;10.00;99.90;;;;;;5080542;28;20407;-75
2022/12/20 06:53:02;;;;;;;;;;;10.00;99.90;;;;;;5079883;28;19935;-75
2022/12/20 06:55:28;;;;;;;;;;;10.00;99.90;;;;;;5079807;28;19928;-75
2022/12/20 06:57:55;;;;;;;;;;;10.00;99.90;;;;;;5066488;28;20813;-75
2022/12/20 07:00:21;;;;;;;;;;;10.00;99.90;;;;;;5062642;28;19924;-75
2022/12/20 07:02:46;;;;;;;;;;;10.00;99.90;;;;;;5077914;28;20054;-75
2022/12/20 07:05:12;;;;;;;;;;;10.00;99.90;;;;;;5044853;28;19924;-75
2022/12/20 07:07:37;;;;;;;;;;;10.00;99.90;;;;;;5077554;28;20045;-75
2022/12/20 07:10:03;;;;;;;;;;;10.00;99.90;;;;;;5076290;28;19929;-75
2022/12/20 07:12:29;;;;;;;;;;;10.00;99.90;;;;;;5078256;28;19952;-75
2022/12/20 07:14:54;;;;;;;;;;;10.00;99.90;;;;;;5062598;28;20248;-75
2022/12/20 07:17:20;;;;;;;;;;;10.00;99.90;;;;;;5075163;28;19950;-75
2022/12/20 07:19:46;;;;;;;;;;;10.00;99.90;;;;;;5078180;28;19950;-75
2022/12/20 07:22:11;;;;;;;;;;;10.00;99.90;;;;;;5074957;28;19991;-75
2022/12/20 07:24:38;;;;;;;;;;;10.00;99.90;;;;;;5078467;28;19924;-75
2022/12/20 07:27:03;;;;;;;;;;;10.00;99.90;;;;;;5079662;28;19929;-75
2022/12/20 07:29:29;;;;;;;;;;;10.00;99.90;;;;;;5076336;28;20429;-75
2022/12/20 07:31:54;;;;;;;;;;;10.00;99.90;;;;;;5079522;28;19940;-75
2022/12/20 07:34:20;;;;;;;;;;;10.00;99.90;;;;;;5077778;28;19931;-75
2022/12/20 07:36:45;;;;;;;;;;;10.00;99.90;;;;;;5077650;28;19929;-75
2022/12/20 07:39:11;;;;;;;;;;;10.00;99.90;;;;;;5059572;28;19935;-75
2022/12/20 07:41:37;;;;;;;;;;;10.00;99.90;;;;;;5078783;28;19980;-74
2022/12/20 07:44:03;;;;;;;;;;;10.00;99.90;;;;;;5077880;28;19928;-75
2022/12/20 07:46:28;;;;;;;;;;;10.00;99.90;;;;;;5079598;28;19925;-75
2022/12/20 07:48:54;;;;;;;;;;;10.00;99.90;;;;;;5077065;28;19934;-74
2022/12/20 07:51:26;;;;;;;;;;;10.00;99.90;;;;;;5079230;28;19932;-75
2022/12/20 07:54:03;;;;;;;;;;;9.90;99.90;;;;;;5079088;28;20038;-75
2022/12/20 07:56:31;;;;;;;;;;;9.90;99.90;;;;;;5079387;28;20011;-75
2022/12/20 07:58:58;;;;;;;;;;;10.00;99.90;;;;;;5066722;28;19925;-75
2022/12/20 08:01:25;;;;;;;;;;;10.00;99.90;;;;;;5053247;28;19989;-74
2022/12/20 08:03:53;;;;;;;;;;;10.10;99.90;;;;;;5078233;28;19924;-75
2022/12/20 08:06:19;;;;;;;;;;;10.00;99.90;;;;;;5069210;28;19985;-74
2022/12/20 08:08:48;;;;;;;;;;;10.10;99.90;;;;;;5078078;28;19924;-74
2022/12/20 08:11:14;;;;;;;;;;;10.10;99.90;;;;;;5080314;28;19932;-75
2022/12/20 08:13:40;;;;;;;;;;;10.10;99.90;;;;;;5078800;28;19928;-75
2022/12/20 08:16:06;;;;;;;;;;;10.20;99.90;;;;;;5078660;28;19996;-75
2022/12/20 08:18:31;;;;;;;;;;;10.20;99.90;;;;;;5080058;28;19928;-75
2022/12/20 08:20:57;;;;;;;;;;;10.20;99.90;;;;;;5079583;28;19924;-75
2022/12/20 08:23:23;;;;;;;;;;;10.20;99.90;;;;;;5080206;28;19928;-75
2022/12/20 08:25:49;;;;;;;;;;;10.20;99.90;;;;;;5078443;28;19987;-75
2022/12/20 08:28:14;;;;;;;;;;;10.30;99.90;;;;;;5080181;28;19931;-75
2022/12/20 08:30:40;;;;;;;;;;;10.30;99.90;;;;;;5078617;28;19935;-75
2022/12/20 08:33:05;;;;;;;;;;;10.30;99.90;;;;;;5077879;28;19924;-75
2022/12/20 08:35:31;;;;;;;;;;;10.30;99.90;;;;;;5074176;28;19925;-74
2022/12/20 08:37:56;;;;;;;;;;;10.30;99.90;;;;;;5067656;28;19996;-76
2022/12/20 08:40:22;;;;;;;;;;;10.30;99.90;;;;;;5061710;28;19924;-75
2022/12/20 08:42:48;;;;;;;;;;;10.30;99.90;;;;;;5068124;28;20012;-75
2022/12/20 08:45:14;;;;;;;;;;;10.30;99.90;;;;;;5076065;28;19977;-75
2022/12/20 08:47:39;;;;;;;;;;;10.30;99.90;;;;;;5070754;28;19997;-75
2022/12/20 08:50:05;;;;;;;;;;;10.20;99.90;;;;;;5077328;28;20003;-76
2022/12/20 08:52:31;;;;;;;;;;;10.30;99.90;;;;;;5076575;28;19947;-76
2022/12/20 08:54:56;;;;;;;;;;;10.30;99.90;;;;;;5060922;28;19925;-76
2022/12/20 08:57:22;;;;;;;;;;;10.30;99.90;;;;;;5069116;28;20012;-76
2022/12/20 08:59:47;;;;;;;;;;;10.30;99.90;;;;;;5078047;28;20512;-75
2022/12/20 09:02:13;;;;;;;;;;;10.30;99.90;;;;;;5077036;28;20353;-75
2022/12/20 09:04:39;;;;;;;;;;;10.30;99.90;;;;;;5061048;28;19928;-75
2022/12/20 09:07:04;;;;;;;;;;;10.30;99.90;;;;;;5059638;28;19935;-76
2022/12/20 09:09:30;;;;;;;;;;;10.30;99.90;;;;;;5072815;28;19928;-75
2022/12/20 09:11:56;;;;;;;;;;;10.30;99.90;;;;;;5079097;28;20018;-75
2022/12/20 09:14:22;;;;;;;;;;;10.20;99.90;;;;;;5077973;28;20337;-75
2022/12/20 09:16:48;;;;;;;;;;;10.20;99.90;;;;;;5078967;28;19925;-75
2022/12/20 09:19:14;;;;;;;;;;;10.20;99.90;;;;;;5073457;28;19936;-75
2022/12/20 09:21:39;;;;;;;;;;;10.20;99.90;;;;;;5078671;28;20147;-75
2022/12/20 09:24:05;;;;;;;;;;;10.20;99.90;;;;;;5078349;28;19991;-75
2022/12/20 09:26:31;;;;;;;;;;;10.20;99.90;;;;;;5077451;28;19929;-75
2022/12/20 09:28:57;;;;;;;;;;;10.20;99.90;;;;;;5074484;28;19950;-75
2022/12/20 09:31:24;;;;;;;;;;;10.20;99.90;;;;;;5078546;28;19924;-75
2022/12/20 09:33:52;;;;;;;;;;;10.20;99.90;;;;;;5077791;28;19939;-75
2022/12/20 09:36:18;;;;;;;;;;;10.20;99.90;;;;;;5070162;28;19925;-75
2022/12/20 09:38:45;;;;;;;;;;;10.20;99.90;;;;;;5056408;28;19928;-75
2022/12/20 09:41:18;;;;;;;;;;;10.20;99.90;;;;;;5077961;28;19988;-75
2022/12/20 09:43:44;;;;;;;;;;;10.20;99.90;;;;;;5077467;28;19934;-75
2022/12/20 09:46:12;;;;;;;;;;;10.20;99.90;;;;;;5075990;28;19929;-75
2022/12/20 09:48:38;;;;;;;;;;;10.20;99.90;;;;;;5077051;28;19925;-75
2022/12/20 09:51:04;;;;;;;;;;;10.20;99.90;;;;;;5077694;28;19946;-75
2022/12/20 09:53:42;;;;;;;;;;;10.20;99.90;;;;;;5077905;28;19939;-75
2022/12/20 09:56:07;;;;;;;;;;;10.10;99.90;;;;;;5077346;28;19925;-75
2022/12/20 09:58:52;;;;;;;;;;;10.20;99.90;;;;;;5069573;28;19947;-75
2022/12/20 10:01:21;;;;;;;;;;;10.10;99.90;;;;;;5057650;28;19924;-74
2022/12/20 10:03:47;;;;;;;;;;;10.10;99.90;;;;;;5082170;28;19924;-74
2022/12/20 10:06:19;;;;;;;;;;;10.10;99.90;;;;;;5079420;28;19937;-74
2022/12/20 10:08:51;;;;;;;;;;;10.10;99.90;;;;;;5078103;28;19985;-73
2022/12/20 10:11:23;;;;;;;;;;;10.10;99.90;;;;;;5077999;28;19950;-73
2022/12/20 10:13:49;;;;;;;;;;;10.00;99.90;;;;;;5079687;28;20599;-73
2022/12/20 10:16:32;;;;;;;;;;;10.00;99.90;;;;;;5080359;28;19932;-73
2022/12/20 10:19:06;;;;;;;;;;;10.00;99.90;;;;;;5079352;28;19935;-73
2022/12/20 10:21:37;;;;;;;;;;;10.00;99.90;;;;;;5079543;28;19924;-73
2022/12/20 10:24:08;;;;;;;;;;;9.90;99.90;;;;;;5080398;28;19931;-73
2022/12/20 10:26:34;;;;;;;;;;;10.00;99.90;;;;;;5078250;28;19924;-73
2022/12/20 10:29:00;;;;;;;;;;;9.90;99.90;;;;;;5081831;28;19932;-73
2022/12/20 10:31:26;;;;;;;;;;;10.00;99.90;;;;;;5078956;28;19924;-73
2022/12/20 10:33:51;;;;;;;;;;;9.90;99.90;;;;;;5081619;28;19925;-73
2022/12/20 10:36:20;;;;;;;;;;;9.90;99.90;;;;;;5081696;28;19928;-72
2022/12/20 10:38:50;;;;;;;;;;;9.90;99.90;;;;;;5076313;28;20143;-73
2022/12/20 10:41:17;;;;;;;;;;;9.90;99.90;;;;;;5077601;28;20015;-73
2022/12/20 10:43:44;;;;;;;;;;;9.90;99.90;;;;;;5076289;28;19928;-73
2022/12/20 10:46:10;;;;;;;;;;;9.90;99.90;;;;;;5072220;28;19932;-73
2022/12/20 10:48:40;;;;;;;;;;;9.90;99.90;;;;;;5075534;28;19928;-73
2022/12/20 10:51:08;;;;;;;;;;;9.90;99.90;;;;;;5080336;28;19944;-73
2022/12/20 10:53:34;;;;;;;;;;;9.90;99.90;;;;;;5080315;28;19971;-73
2022/12/20 10:56:09;;;;;;;;;;;9.90;99.90;;;;;;5066670;28;20030;-73
2022/12/20 10:58:36;;;;;;;;;;;9.90;99.90;;;;;;5075573;28;19925;-73
2022/12/20 11:01:12;;;;;;;;;;;9.90;99.90;;;;;;5081133;28;19924;-74
2022/12/20 11:03:54;;;;;;;;;;;10.00;99.90;;;;;;5080739;28;19928;-73
2022/12/20 11:06:21;;;;;;;;;;;10.00;99.90;;;;;;5079756;28;19983;-73
2022/12/20 11:08:47;;;;;;;;;;;10.00;99.90;;;;;;5076864;28;20287;-72
2022/12/20 11:11:23;;;;;;;;;;;10.00;99.90;;;;;;5080040;28;19946;-73
2022/12/20 11:13:49;;;;;;;;;;;10.00;99.90;;;;;;5072274;28;19929;-73
2022/12/20 11:16:26;;;;;;;;;;;10.10;99.90;;;;;;5071223;28;19936;-73
2022/12/20 11:18:56;;;;;;;;;;;10.00;99.90;;;;;;5078815;28;19925;-73
2022/12/20 11:21:21;;;;;;;;;;;10.10;99.90;;;;;;5080172;28;19928;-73
2022/12/20 11:23:56;;;;;;;;;;;10.10;99.90;;;;;;5081502;28;19982;-73
2022/12/20 11:26:21;;;;;;;;;;;10.10;99.90;;;;;;5080459;28;19932;-73
2022/12/20 11:29:01;;;;;;;;;;;10.10;99.90;;;;;;5076017;28;19925;-73
2022/12/20 11:31:40;;;;;;;;;;;10.10;99.90;;;;;;5077540;28;19932;-73
2022/12/20 11:34:08;;;;;;;;;;;10.10;99.90;;;;;;5065515;28;19931;-73
2022/12/20 11:36:37;;;;;;;;;;;10.20;99.90;;;;;;5075618;28;19932;-74
2022/12/20 11:39:14;;;;;;;;;;;10.20;99.90;;;;;;5073269;28;19924;-74
2022/12/20 11:41:39;;;;;;;;;;;10.20;99.90;;;;;;5080055;28;19928;-73
2022/12/20 11:44:15;;;;;;;;;;;10.20;99.90;;;;;;5074238;28;20399;-74
2022/12/20 11:46:44;;;;;;;;;;;10.20;99.90;;;;;;5077148;28;19986;-74
2022/12/20 11:49:27;;;;;;;;;;;10.20;99.90;;;;;;5075676;28;19956;-74
2022/12/20 11:52:15;;;;;;;;;;;10.20;99.90;;;;;;5076205;28;19925;-74
2022/12/20 11:54:52;;;;;;;;;;;10.20;99.90;;;;;;5076252;28;19929;-73
2022/12/20 11:57:30;;;;;;;;;;;10.20;99.90;;;;;;5077573;28;19924;-74
2022/12/20 11:59:57;;;;;;;;;;;10.20;99.90;;;;;;5078246;28;19932;-74
2022/12/20 12:02:49;;;;;;;;;;;10.10;99.90;;;;;;5065646;28;20016;-74
2022/12/20 12:05:27;;;;;;;;;;;10.10;99.90;;;;;;5065077;28;19946;-73
2022/12/20 12:07:57;;;;;;;;;;;10.10;99.90;;;;;;5076667;28;19978;-74
2022/12/20 12:10:24;;;;;;;;;;;10.10;99.90;;;;;;5072103;28;19947;-74
2022/12/20 12:13:16;;;;;;;;;;;10.10;99.90;;;;;;5071087;28;19928;-73
2022/12/20 12:15:42;;;;;;;;;;;10.10;99.90;;;;;;5070643;28;19929;-74
2022/12/20 12:18:10;;;;;;;;;;;10.10;99.90;;;;;;5072842;28;19978;-74
2022/12/20 12:20:42;;;;;;;;;;;10.10;99.90;;;;;;5075607;28;19950;-74
2022/12/20 12:23:26;;;;;;;;;;;10.10;99.90;;;;;;5077041;28;20426;-74
2022/12/20 12:25:52;;;;;;;;;;;10.10;99.90;;;;;;5076827;28;19924;-74
2022/12/20 12:28:19;;;;;;;;;;;10.10;99.90;;;;;;5050048;28;19932;-74
2022/12/20 12:31:02;;;;;;;;;;;10.10;99.90;;;;;;5077638;28;19937;-74
2022/12/20 12:33:29;;;;;;;;;;;10.10;99.90;;;;;;5078026;28;19946;-74
2022/12/20 12:36:02;;;;;;;;;;;10.10;99.90;;;;;;5078056;28;20043;-74
2022/12/20 12:38:35;;;;;;;;;;;10.10;99.90;;;;;;5075192;28;19975;-74
2022/12/20 12:41:19;;;;;;;;;;;10.10;99.90;;;;;;5079266;28;19924;-74
2022/12/20 12:43:49;;;;;;;;;;;10.10;99.90;;;;;;5079557;28;20017;-74
2022/12/20 12:46:16;;;;;;;;;;;10.00;99.90;;;;;;5079064;28;20018;-74
2022/12/20 12:48:46;;;;;;;;;;;10.10;99.90;;;;;;5075316;28;19952;-74
2022/12/20 12:51:13;;;;;;;;;;;10.10;99.90;;;;;;5077515;28;19934;-74
2022/12/20 12:53:43;;;;;;;;;;;10.00;99.90;;;;;;5077952;28;20379;-75
2022/12/20 12:56:24;;;;;;;;;;;10.00;99.90;;;;;;5077535;28;19928;-75
2022/12/20 12:59:05;;;;;;;;;;;10.10;99.90;;;;;;5076399;28;19982;-75
2022/12/20 13:01:49;;;;;;;;;;;10.10;99.90;;;;;;5047833;28;20295;-75
2022/12/20 13:04:21;;;;;;;;;;;10.10;99.90;;;;;;5079023;28;20394;-75
2022/12/20 13:06:46;;;;;;;;;;;10.10;99.90;;;;;;5077736;28;19951;-75
2022/12/20 13:09:24;;;;;;;;;;;10.10;99.90;;;;;;5078211;28;19924;-75
2022/12/20 13:11:53;;;;;;;;;;;10.10;99.90;;;;;;5065044;28;19932;-75
2022/12/20 13:14:19;;;;;;;;;;;10.00;99.90;;;;;;5077994;28;19924;-75
2022/12/20 13:16:45;;;;;;;;;;;10.10;99.90;;;;;;5076772;28;19995;-76
2022/12/20 13:19:15;;;;;;;;;;;10.10;99.90;;;;;;5077830;28;20402;-75
2022/12/20 13:21:47;;;;;;;;;;;10.10;99.90;;;;;;5078979;28;20015;-75
2022/12/20 13:24:31;;;;;;;;;;;10.10;99.90;;;;;;5077810;28;19928;-76
2022/12/20 13:26:58;;;;;;;;;;;10.10;99.90;;;;;;5077766;28;19935;-76
2022/12/20 13:29:25;;;;;;;;;;;10.10;99.90;;;;;;5077803;28;19987;-76
2022/12/20 13:31:50;;;;;;;;;;;10.10;99.90;;;;;;5077741;28;19928;-76
2022/12/20 13:34:35;;;;;;;;;;;10.10;99.90;;;;;;5060900;28;19998;-76
2022/12/20 13:37:01;;;;;;;;;;;10.10;99.90;;;;;;5063627;28;19928;-76
2022/12/20 13:39:26;;;;;;;;;;;10.10;99.90;;;;;;5080646;28;19925;-76
2022/12/20 13:42:14;;;;;;;;;;;10.10;99.90;;;;;;5081062;28;19924;-76
2022/12/20 13:44:42;;;;;;;;;;;10.10;99.90;;;;;;5083029;28;19935;-76
2022/12/20 13:47:27;;;;;;;;;;;10.10;99.90;;;;;;5082186;28;20341;-76
2022/12/20 13:49:52;;;;;;;;;;;10.10;99.90;;;;;;5079056;28;19999;-76
2022/12/20 13:52:21;;;;;;;;;;;10.10;99.90;;;;;;5081410;28;19925;-76
2022/12/20 13:54:48;;;;;;;;;;;10.10;99.90;;;;;;5082278;28;20395;-76
2022/12/20 13:57:28;;;;;;;;;;;10.10;99.90;;;;;;5081356;28;19939;-76
2022/12/20 13:59:56;;;;;;;;;;;10.10;99.90;;;;;;5070522;28;19924;-76
2022/12/20 14:02:33;;;;;;;;;;;10.10;99.90;;;;;;5080788;28;19928;-75
2022/12/20 14:05:00;;;;;;;;;;;10.10;99.90;;;;;;5080986;28;20031;-75
2022/12/20 14:07:27;;;;;;;;;;;10.10;99.90;;;;;;5063673;28;19990;-75
2022/12/20 14:09:57;;;;;;;;;;;10.10;99.90;;;;;;5079931;28;20343;-76
2022/12/20 14:12:24;;;;;;;;;;;10.10;99.90;;;;;;5081932;28;19983;-76
2022/12/20 14:14:50;;;;;;;;;;;10.10;99.90;;;;;;5080943;28;19928;-76
2022/12/20 14:17:32;;;;;;;;;;;10.10;99.90;;;;;;5081926;28;19924;-76
2022/12/20 14:20:05;;;;;;;;;;;10.10;99.90;;;;;;5079494;28;19928;-76
2022/12/20 14:22:31;;;;;;;;;;;10.20;99.90;;;;;;5081295;28;19929;-76
2022/12/20 14:24:57;;;;;;;;;;;10.10;99.90;;;;;;5080197;28;19924;-76
2022/12/20 14:27:24;;;;;;;;;;;10.10;99.90;;;;;;5080764;28;19924;-75
2022/12/20 14:29:50;;;;;;;;;;;10.10;99.90;;;;;;5081425;28;19939;-76
2022/12/20 14:32:19;;;;;;;;;;;10.10;99.90;;;;;;5079869;28;20462;-76
2022/12/20 14:34:46;;;;;;;;;;;10.10;99.90;;;;;;5080261;28;19968;-75
2022/12/20 14:37:32;;;;;;;;;;;10.10;99.90;;;;;;5079832;28;19939;-76
2022/12/20 14:40:09;;;;;;;;;;;10.10;99.90;;;;;;5080505;28;20250;-76